sensor_id;sensor_type;location;lat;lon;timestamp;P1;durP1;ratioP1;P2;durP2;ratioP2
3415;SDS011;1721;51.238;9.562;2023-02-01T00:02:04;12.95;;;2.13;;
3415;SDS011;1721;51.238;9.562;2023-02-01T00:04:30;6.40;;;2.00;;
3415;SDS011;1721;51.238;9.562;2023-02-01T00:06:56;8.00;;;1.90;;
3415;SDS011;1721;51.238;9.562;2023-02-01T00:09:22;9.57;;;1.97;;
3415;SDS011;1721;51.238;9.562;2023-02-01T00:11:47;8.23;;;1.98;;
3415;SDS011;1721;51.238;9.562;2023-02-01T00:14:13;12.82;;;2.00;;
3415;SDS011;1721;51.238;9.562;2023-02-01T00:16:38;8.37;;;2.00;;
3415;SDS011;1721;51.238;9.562;2023-02-01T00:19:05;6.90;;;1.90;;
3415;SDS011;1721;51.238;9.562;2023-02-01T00:21:33;10.00;;;1.77;;
3415;SDS011;1721;51.238;9.562;2023-02-01T00:23:58;13.00;;;2.30;;
3415;SDS011;1721;51.238;9.562;2023-02-01T00:26:30;11.00;;;2.20;;
3415;SDS011;1721;51.238;9.562;2023-02-01T00:29:01;7.47;;;1.77;;
3415;SDS011;1721;51.238;9.562;2023-02-01T00:31:29;7.07;;;2.00;;
3415;SDS011;1721;51.238;9.562;2023-02-01T00:33:54;8.20;;;2.20;;
3415;SDS011;1721;51.238;9.562;2023-02-01T00:36:20;12.13;;;2.50;;
3415;SDS011;1721;51.238;9.562;2023-02-01T00:38:46;13.87;;;2.47;;
3415;SDS011;1721;51.238;9.562;2023-02-01T00:41:12;9.65;;;2.20;;
3415;SDS011;1721;51.238;9.562;2023-02-01T00:43:40;5.45;;;1.83;;
3415;SDS011;1721;51.238;9.562;2023-02-01T00:46:06;12.02;;;2.40;;
3415;SDS011;1721;51.238;9.562;2023-02-01T00:48:32;10.80;;;2.20;;
3415;SDS011;1721;51.238;9.562;2023-02-01T00:51:05;6.93;;;2.17;;
3415;SDS011;1721;51.238;9.562;2023-02-01T00:53:33;11.90;;;2.20;;
3415;SDS011;1721;51.238;9.562;2023-02-01T00:55:59;14.02;;;2.05;;
3415;SDS011;1721;51.238;9.562;2023-02-01T00:58:25;8.82;;;1.90;;
3415;SDS011;1721;51.238;9.562;2023-02-01T01:01:04;8.30;;;2.42;;
3415;SDS011;1721;51.238;9.562;2023-02-01T01:03:35;11.57;;;2.20;;
3415;SDS011;1721;51.238;9.562;2023-02-01T01:06:04;10.98;;;2.20;;
3415;SDS011;1721;51.238;9.562;2023-02-01T01:08:32;11.80;;;2.20;;
3415;SDS011;1721;51.238;9.562;2023-02-01T01:10:58;12.93;;;2.13;;
3415;SDS011;1721;51.238;9.562;2023-02-01T01:13:28;9.00;;;2.20;;
3415;SDS011;1721;51.238;9.562;2023-02-01T01:15:53;13.43;;;2.20;;
3415;SDS011;1721;51.238;9.562;2023-02-01T01:18:19;9.27;;;1.80;;
3415;SDS011;1721;51.238;9.562;2023-02-01T01:20:44;9.65;;;2.30;;
3415;SDS011;1721;51.238;9.562;2023-02-01T01:23:10;15.38;;;2.47;;
3415;SDS011;1721;51.238;9.562;2023-02-01T01:25:38;13.05;;;2.30;;
3415;SDS011;1721;51.238;9.562;2023-02-01T01:28:05;8.40;;;1.92;;
3415;SDS011;1721;51.238;9.562;2023-02-01T01:30:31;10.80;;;2.40;;
3415;SDS011;1721;51.238;9.562;2023-02-01T01:32:57;11.35;;;2.20;;
3415;SDS011;1721;51.238;9.562;2023-02-01T01:35:23;6.70;;;2.03;;
3415;SDS011;1721;51.238;9.562;2023-02-01T01:37:48;7.57;;;1.80;;
3415;SDS011;1721;51.238;9.562;2023-02-01T01:40:14;11.53;;;3.00;;
3415;SDS011;1721;51.238;9.562;2023-02-01T01:42:40;11.07;;;2.13;;
3415;SDS011;1721;51.238;9.562;2023-02-01T01:48:13;7.72;;;2.42;;
3415;SDS011;1721;51.238;9.562;2023-02-01T01:50:44;12.90;;;2.50;;
3415;SDS011;1721;51.238;9.562;2023-02-01T01:53:16;9.38;;;2.40;;
3415;SDS011;1721;51.238;9.562;2023-02-01T01:55:53;9.70;;;2.20;;
3415;SDS011;1721;51.238;9.562;2023-02-01T01:58:21;12.65;;;2.20;;
3415;SDS011;1721;51.238;9.562;2023-02-01T02:00:50;9.18;;;2.30;;
3415;SDS011;1721;51.238;9.562;2023-02-01T02:03:18;7.40;;;2.30;;
3415;SDS011;1721;51.238;9.562;2023-02-01T02:05:47;8.20;;;2.50;;
3415;SDS011;1721;51.238;9.562;2023-02-01T02:08:15;13.48;;;2.97;;
3415;SDS011;1721;51.238;9.562;2023-02-01T02:10:43;14.80;;;2.60;;
3415;SDS011;1721;51.238;9.562;2023-02-01T02:13:34;12.73;;;2.58;;
3415;SDS011;1721;51.238;9.562;2023-02-01T02:36:01;6.80;;;2.05;;
3415;SDS011;1721;51.238;9.562;2023-02-01T02:39:01;7.65;;;2.40;;
3415;SDS011;1721;51.238;9.562;2023-02-01T02:42:01;7.60;;;2.10;;
3415;SDS011;1721;51.238;9.562;2023-02-01T02:50:44;12.30;;;2.92;;
3415;SDS011;1721;51.238;9.562;2023-02-01T02:53:38;8.85;;;2.42;;
3415;SDS011;1721;51.238;9.562;2023-02-01T02:56:31;13.30;;;2.30;;
3415;SDS011;1721;51.238;9.562;2023-02-01T02:59:19;9.90;;;2.40;;
3415;SDS011;1721;51.238;9.562;2023-02-01T03:02:07;12.30;;;2.53;;
3415;SDS011;1721;51.238;9.562;2023-02-01T03:04:55;8.90;;;2.72;;
3415;SDS011;1721;51.238;9.562;2023-02-01T03:10:58;9.00;;;2.13;;
3415;SDS011;1721;51.238;9.562;2023-02-01T03:24:21;10.63;;;2.40;;
3415;SDS011;1721;51.238;9.562;2023-02-01T03:26:58;7.88;;;2.30;;
3415;SDS011;1721;51.238;9.562;2023-02-01T03:29:32;13.75;;;2.60;;
3415;SDS011;1721;51.238;9.562;2023-02-01T03:32:05;11.68;;;2.60;;
3415;SDS011;1721;51.238;9.562;2023-02-01T03:34:30;9.00;;;2.30;;
3415;SDS011;1721;51.238;9.562;2023-02-01T03:37:00;8.70;;;2.83;;
3415;SDS011;1721;51.238;9.562;2023-02-01T03:39:46;13.32;;;2.60;;
3415;SDS011;1721;51.238;9.562;2023-02-01T03:47:39;18.25;;;3.10;;
3415;SDS011;1721;51.238;9.562;2023-02-01T03:50:11;8.63;;;2.60;;
3415;SDS011;1721;51.238;9.562;2023-02-01T03:53:22;11.50;;;2.80;;
3415;SDS011;1721;51.238;9.562;2023-02-01T03:55:31;8.77;;;2.42;;
3415;SDS011;1721;51.238;9.562;2023-02-01T04:00:32;11.05;;;2.50;;
3415;SDS011;1721;51.238;9.562;2023-02-01T04:02:58;15.13;;;2.95;;
3415;SDS011;1721;51.238;9.562;2023-02-01T04:05:24;15.50;;;2.50;;
3415;SDS011;1721;51.238;9.562;2023-02-01T04:07:49;9.77;;;2.23;;
3415;SDS011;1721;51.238;9.562;2023-02-01T04:10:15;11.45;;;2.60;;
3415;SDS011;1721;51.238;9.562;2023-02-01T04:12:41;14.93;;;2.45;;
3415;SDS011;1721;51.238;9.562;2023-02-01T04:15:07;11.70;;;2.33;;
3415;SDS011;1721;51.238;9.562;2023-02-01T04:17:32;12.68;;;2.67;;
3415;SDS011;1721;51.238;9.562;2023-02-01T04:19:58;15.13;;;2.97;;
3415;SDS011;1721;51.238;9.562;2023-02-01T04:22:24;12.05;;;2.55;;
3415;SDS011;1721;51.238;9.562;2023-02-01T04:24:49;7.82;;;1.95;;
3415;SDS011;1721;51.238;9.562;2023-02-01T04:27:15;10.97;;;2.20;;
3415;SDS011;1721;51.238;9.562;2023-02-01T04:29:40;9.15;;;2.03;;
3415;SDS011;1721;51.238;9.562;2023-02-01T04:32:06;11.23;;;2.50;;
3415;SDS011;1721;51.238;9.562;2023-02-01T04:34:32;16.35;;;2.00;;
3415;SDS011;1721;51.238;9.562;2023-02-01T04:36:58;12.70;;;2.03;;
3415;SDS011;1721;51.238;9.562;2023-02-01T04:39:23;10.63;;;2.20;;
3415;SDS011;1721;51.238;9.562;2023-02-01T04:41:49;9.57;;;2.00;;
3415;SDS011;1721;51.238;9.562;2023-02-01T04:44:15;12.20;;;1.80;;
3415;SDS011;1721;51.238;9.562;2023-02-01T04:46:43;16.23;;;2.30;;
3415;SDS011;1721;51.238;9.562;2023-02-01T04:49:10;12.48;;;1.90;;
3415;SDS011;1721;51.238;9.562;2023-02-01T04:51:36;13.35;;;2.22;;
3415;SDS011;1721;51.238;9.562;2023-02-01T04:54:02;7.97;;;2.25;;
3415;SDS011;1721;51.238;9.562;2023-02-01T04:56:28;15.63;;;2.42;;
3415;SDS011;1721;51.238;9.562;2023-02-01T04:58:53;10.57;;;2.00;;
3415;SDS011;1721;51.238;9.562;2023-02-01T05:01:20;11.10;;;2.50;;
3415;SDS011;1721;51.238;9.562;2023-02-01T05:03:45;9.57;;;2.50;;
3415;SDS011;1721;51.238;9.562;2023-02-01T05:06:11;12.80;;;2.60;;
3415;SDS011;1721;51.238;9.562;2023-02-01T05:08:36;12.95;;;2.60;;
3415;SDS011;1721;51.238;9.562;2023-02-01T05:11:02;12.70;;;2.50;;
3415;SDS011;1721;51.238;9.562;2023-02-01T05:13:28;12.88;;;2.80;;
3415;SDS011;1721;51.238;9.562;2023-02-01T05:16:14;14.70;;;2.90;;
3415;SDS011;1721;51.238;9.562;2023-02-01T05:18:40;7.25;;;2.05;;
3415;SDS011;1721;51.238;9.562;2023-02-01T05:21:05;5.50;;;1.70;;
3415;SDS011;1721;51.238;9.562;2023-02-01T05:23:31;14.10;;;2.60;;
3415;SDS011;1721;51.238;9.562;2023-02-01T05:26:00;8.73;;;2.10;;
3415;SDS011;1721;51.238;9.562;2023-02-01T05:28:26;9.48;;;1.95;;
3415;SDS011;1721;51.238;9.562;2023-02-01T05:30:52;10.32;;;2.20;;
3415;SDS011;1721;51.238;9.562;2023-02-01T05:33:18;9.13;;;2.00;;
3415;SDS011;1721;51.238;9.562;2023-02-01T05:35:44;10.18;;;2.00;;
3415;SDS011;1721;51.238;9.562;2023-02-01T05:38:10;5.60;;;1.67;;
3415;SDS011;1721;51.238;9.562;2023-02-01T05:40:35;13.93;;;2.53;;
3415;SDS011;1721;51.238;9.562;2023-02-01T05:43:01;13.27;;;2.10;;
3415;SDS011;1721;51.238;9.562;2023-02-01T05:45:26;6.77;;;2.00;;
3415;SDS011;1721;51.238;9.562;2023-02-01T05:47:52;9.40;;;1.93;;
3415;SDS011;1721;51.238;9.562;2023-02-01T05:50:18;8.85;;;2.20;;
3415;SDS011;1721;51.238;9.562;2023-02-01T05:52:43;6.80;;;2.00;;
3415;SDS011;1721;51.238;9.562;2023-02-01T05:55:09;12.20;;;2.60;;
3415;SDS011;1721;51.238;9.562;2023-02-01T05:57:34;11.15;;;2.15;;
3415;SDS011;1721;51.238;9.562;2023-02-01T06:00:00;16.73;;;1.90;;
3415;SDS011;1721;51.238;9.562;2023-02-01T06:02:26;6.80;;;2.03;;
3415;SDS011;1721;51.238;9.562;2023-02-01T06:04:51;6.68;;;1.90;;
3415;SDS011;1721;51.238;9.562;2023-02-01T06:07:17;6.40;;;1.40;;
3415;SDS011;1721;51.238;9.562;2023-02-01T06:09:42;11.70;;;2.17;;
3415;SDS011;1721;51.238;9.562;2023-02-01T06:12:09;8.77;;;2.00;;
3415;SDS011;1721;51.238;9.562;2023-02-01T06:14:34;5.83;;;1.60;;
3415;SDS011;1721;51.238;9.562;2023-02-01T06:17:01;6.63;;;2.15;;
3415;SDS011;1721;51.238;9.562;2023-02-01T06:19:27;7.05;;;1.55;;
3415;SDS011;1721;51.238;9.562;2023-02-01T06:21:53;13.77;;;2.30;;
3415;SDS011;1721;51.238;9.562;2023-02-01T06:24:18;10.90;;;1.70;;
3415;SDS011;1721;51.238;9.562;2023-02-01T06:26:44;11.13;;;1.90;;
3415;SDS011;1721;51.238;9.562;2023-02-01T06:29:10;5.90;;;1.50;;
3415;SDS011;1721;51.238;9.562;2023-02-01T06:31:35;6.53;;;1.50;;
3415;SDS011;1721;51.238;9.562;2023-02-01T06:34:01;7.27;;;1.80;;
3415;SDS011;1721;51.238;9.562;2023-02-01T06:36:27;11.23;;;2.13;;
3415;SDS011;1721;51.238;9.562;2023-02-01T06:38:54;12.38;;;1.90;;
3415;SDS011;1721;51.238;9.562;2023-02-01T06:41:21;10.25;;;2.10;;
3415;SDS011;1721;51.238;9.562;2023-02-01T06:43:47;9.60;;;2.00;;
3415;SDS011;1721;51.238;9.562;2023-02-01T06:46:13;6.93;;;1.40;;
3415;SDS011;1721;51.238;9.562;2023-02-01T06:48:40;8.93;;;1.60;;
3415;SDS011;1721;51.238;9.562;2023-02-01T06:51:06;9.98;;;2.10;;
3415;SDS011;1721;51.238;9.562;2023-02-01T06:53:41;6.78;;;1.50;;
3415;SDS011;1721;51.238;9.562;2023-02-01T06:56:08;6.23;;;1.43;;
3415;SDS011;1721;51.238;9.562;2023-02-01T06:58:34;10.20;;;1.70;;
3415;SDS011;1721;51.238;9.562;2023-02-01T07:01:07;11.93;;;1.40;;
3415;SDS011;1721;51.238;9.562;2023-02-01T07:03:33;8.30;;;1.90;;
3415;SDS011;1721;51.238;9.562;2023-02-01T07:05:59;7.13;;;1.55;;
3415;SDS011;1721;51.238;9.562;2023-02-01T07:08:28;7.97;;;1.60;;
3415;SDS011;1721;51.238;9.562;2023-02-01T07:10:55;10.73;;;1.60;;
3415;SDS011;1721;51.238;9.562;2023-02-01T07:13:21;6.75;;;1.40;;
3415;SDS011;1721;51.238;9.562;2023-02-01T07:15:47;8.35;;;1.35;;
3415;SDS011;1721;51.238;9.562;2023-02-01T07:18:13;5.10;;;1.50;;
3415;SDS011;1721;51.238;9.562;2023-02-01T07:20:40;7.32;;;1.90;;
3415;SDS011;1721;51.238;9.562;2023-02-01T07:23:06;10.07;;;1.67;;
3415;SDS011;1721;51.238;9.562;2023-02-01T07:25:34;10.75;;;1.80;;
3415;SDS011;1721;51.238;9.562;2023-02-01T07:27:59;3.92;;;1.52;;
3415;SDS011;1721;51.238;9.562;2023-02-01T07:30:25;6.63;;;1.60;;
3415;SDS011;1721;51.238;9.562;2023-02-01T07:32:51;6.50;;;1.37;;
3415;SDS011;1721;51.238;9.562;2023-02-01T07:35:16;7.20;;;1.60;;
3415;SDS011;1721;51.238;9.562;2023-02-01T07:37:42;9.82;;;1.98;;
3415;SDS011;1721;51.238;9.562;2023-02-01T07:40:08;7.13;;;1.80;;
3415;SDS011;1721;51.238;9.562;2023-02-01T07:42:34;3.85;;;1.40;;
3415;SDS011;1721;51.238;9.562;2023-02-01T07:44:59;5.87;;;1.70;;
3415;SDS011;1721;51.238;9.562;2023-02-01T07:47:25;7.40;;;1.60;;
3415;SDS011;1721;51.238;9.562;2023-02-01T07:49:51;10.00;;;1.80;;
3415;SDS011;1721;51.238;9.562;2023-02-01T07:52:16;10.97;;;2.30;;
3415;SDS011;1721;51.238;9.562;2023-02-01T07:54:42;6.65;;;2.10;;
3415;SDS011;1721;51.238;9.562;2023-02-01T07:57:08;8.75;;;1.58;;
3415;SDS011;1721;51.238;9.562;2023-02-01T07:59:34;9.17;;;1.73;;
3415;SDS011;1721;51.238;9.562;2023-02-01T08:02:00;6.20;;;1.70;;
3415;SDS011;1721;51.238;9.562;2023-02-01T08:04:25;4.97;;;1.63;;
3415;SDS011;1721;51.238;9.562;2023-02-01T08:06:51;8.52;;;1.60;;
3415;SDS011;1721;51.238;9.562;2023-02-01T08:09:17;7.03;;;2.00;;
3415;SDS011;1721;51.238;9.562;2023-02-01T08:11:42;8.10;;;1.70;;
3415;SDS011;1721;51.238;9.562;2023-02-01T08:14:08;6.17;;;1.70;;
3415;SDS011;1721;51.238;9.562;2023-02-01T08:16:33;5.95;;;1.50;;
3415;SDS011;1721;51.238;9.562;2023-02-01T08:19:01;6.50;;;1.80;;
3415;SDS011;1721;51.238;9.562;2023-02-01T08:21:27;8.87;;;1.60;;
3415;SDS011;1721;51.238;9.562;2023-02-01T08:24:01;11.45;;;1.85;;
3415;SDS011;1721;51.238;9.562;2023-02-01T08:26:31;5.70;;;1.40;;
3415;SDS011;1721;51.238;9.562;2023-02-01T08:28:58;5.35;;;1.42;;
3415;SDS011;1721;51.238;9.562;2023-02-01T08:31:25;5.28;;;1.45;;
3415;SDS011;1721;51.238;9.562;2023-02-01T08:33:56;9.13;;;1.60;;
3415;SDS011;1721;51.238;9.562;2023-02-01T08:36:23;6.20;;;1.10;;
3415;SDS011;1721;51.238;9.562;2023-02-01T08:38:50;4.35;;;1.20;;
3415;SDS011;1721;51.238;9.562;2023-02-01T08:41:16;7.80;;;1.40;;
3415;SDS011;1721;51.238;9.562;2023-02-01T08:43:44;5.93;;;1.60;;
3415;SDS011;1721;51.238;9.562;2023-02-01T08:46:10;9.00;;;1.40;;
3415;SDS011;1721;51.238;9.562;2023-02-01T08:48:36;9.38;;;1.60;;
3415;SDS011;1721;51.238;9.562;2023-02-01T08:51:03;7.88;;;1.65;;
3415;SDS011;1721;51.238;9.562;2023-02-01T08:53:33;6.30;;;1.75;;
3415;SDS011;1721;51.238;9.562;2023-02-01T08:55:59;5.40;;;2.10;;
3415;SDS011;1721;51.238;9.562;2023-02-01T08:58:25;7.53;;;1.73;;
3415;SDS011;1721;51.238;9.562;2023-02-01T09:00:51;7.25;;;1.50;;
3415;SDS011;1721;51.238;9.562;2023-02-01T09:03:17;11.20;;;1.60;;
3415;SDS011;1721;51.238;9.562;2023-02-01T09:05:43;11.98;;;1.95;;
3415;SDS011;1721;51.238;9.562;2023-02-01T09:08:10;6.22;;;1.50;;
3415;SDS011;1721;51.238;9.562;2023-02-01T09:10:39;6.55;;;1.90;;
3415;SDS011;1721;51.238;9.562;2023-02-01T09:13:06;5.90;;;1.50;;
3415;SDS011;1721;51.238;9.562;2023-02-01T09:15:32;6.45;;;1.70;;
3415;SDS011;1721;51.238;9.562;2023-02-01T09:17:58;6.77;;;1.73;;
3415;SDS011;1721;51.238;9.562;2023-02-01T09:20:24;8.10;;;1.50;;
3415;SDS011;1721;51.238;9.562;2023-02-01T09:22:50;8.40;;;1.80;;
3415;SDS011;1721;51.238;9.562;2023-02-01T09:25:16;8.02;;;1.70;;
3415;SDS011;1721;51.238;9.562;2023-02-01T09:27:42;7.18;;;1.60;;
3415;SDS011;1721;51.238;9.562;2023-02-01T09:30:08;10.07;;;1.93;;
3415;SDS011;1721;51.238;9.562;2023-02-01T09:32:34;7.55;;;1.58;;
3415;SDS011;1721;51.238;9.562;2023-02-01T09:35:00;9.50;;;1.63;;
3415;SDS011;1721;51.238;9.562;2023-02-01T09:37:26;6.30;;;1.80;;
3415;SDS011;1721;51.238;9.562;2023-02-01T09:39:51;10.13;;;1.70;;
3415;SDS011;1721;51.238;9.562;2023-02-01T09:45:24;5.88;;;1.27;;
3415;SDS011;1721;51.238;9.562;2023-02-01T09:48:08;10.48;;;1.80;;
3415;SDS011;1721;51.238;9.562;2023-02-01T09:50:41;5.20;;;1.45;;
3415;SDS011;1721;51.238;9.562;2023-02-01T09:53:20;7.55;;;1.60;;
3415;SDS011;1721;51.238;9.562;2023-02-01T09:55:50;6.18;;;1.60;;
3415;SDS011;1721;51.238;9.562;2023-02-01T09:58:37;5.72;;;1.58;;
3415;SDS011;1721;51.238;9.562;2023-02-01T10:01:18;10.18;;;1.73;;
3415;SDS011;1721;51.238;9.562;2023-02-01T10:03:46;6.53;;;1.50;;
3415;SDS011;1721;51.238;9.562;2023-02-01T10:09:03;8.85;;;1.65;;
3415;SDS011;1721;51.238;9.562;2023-02-01T10:11:59;5.75;;;1.90;;
3415;SDS011;1721;51.238;9.562;2023-02-01T10:15:03;9.43;;;1.52;;
3415;SDS011;1721;51.238;9.562;2023-02-01T10:20:21;6.07;;;1.52;;
3415;SDS011;1721;51.238;9.562;2023-02-01T10:26:03;9.27;;;1.60;;
3415;SDS011;1721;51.238;9.562;2023-02-01T10:28:37;8.27;;;1.85;;
3415;SDS011;1721;51.238;9.562;2023-02-01T10:31:04;6.90;;;1.90;;
3415;SDS011;1721;51.238;9.562;2023-02-01T10:33:34;13.30;;;2.10;;
3415;SDS011;1721;51.238;9.562;2023-02-01T10:36:05;8.55;;;2.17;;
3415;SDS011;1721;51.238;9.562;2023-02-01T10:38:33;9.77;;;2.05;;
3415;SDS011;1721;51.238;9.562;2023-02-01T10:41:12;9.47;;;2.20;;
3415;SDS011;1721;51.238;9.562;2023-02-01T10:43:38;7.82;;;1.90;;
3415;SDS011;1721;51.238;9.562;2023-02-01T10:46:04;7.78;;;1.75;;
3415;SDS011;1721;51.238;9.562;2023-02-01T10:48:31;8.80;;;2.00;;
3415;SDS011;1721;51.238;9.562;2023-02-01T10:51:03;7.73;;;2.00;;
3415;SDS011;1721;51.238;9.562;2023-02-01T10:53:35;8.27;;;2.10;;
3415;SDS011;1721;51.238;9.562;2023-02-01T10:56:13;7.00;;;1.80;;
3415;SDS011;1721;51.238;9.562;2023-02-01T10:58:45;6.78;;;1.80;;
3415;SDS011;1721;51.238;9.562;2023-02-01T11:01:19;9.50;;;2.03;;
3415;SDS011;1721;51.238;9.562;2023-02-01T11:03:57;6.38;;;1.67;;
3415;SDS011;1721;51.238;9.562;2023-02-01T11:06:27;10.15;;;2.00;;
3415;SDS011;1721;51.238;9.562;2023-02-01T11:09:00;12.40;;;2.00;;
3415;SDS011;1721;51.238;9.562;2023-02-01T11:11:32;16.10;;;2.38;;
3415;SDS011;1721;51.238;9.562;2023-02-01T11:17:24;8.10;;;1.90;;
3415;SDS011;1721;51.238;9.562;2023-02-01T11:19:56;8.95;;;2.20;;
3415;SDS011;1721;51.238;9.562;2023-02-01T11:22:24;6.10;;;1.80;;
3415;SDS011;1721;51.238;9.562;2023-02-01T11:24:50;9.02;;;2.10;;
3415;SDS011;1721;51.238;9.562;2023-02-01T11:27:17;9.27;;;2.50;;
3415;SDS011;1721;51.238;9.562;2023-02-01T11:29:47;13.50;;;2.30;;
3415;SDS011;1721;51.238;9.562;2023-02-01T11:32:16;12.15;;;1.90;;
3415;SDS011;1721;51.238;9.562;2023-02-01T11:34:49;8.45;;;1.90;;
3415;SDS011;1721;51.238;9.562;2023-02-01T11:37:23;8.30;;;2.10;;
3415;SDS011;1721;51.238;9.562;2023-02-01T11:42:21;8.20;;;1.85;;
3415;SDS011;1721;51.238;9.562;2023-02-01T11:44:47;12.17;;;1.90;;
3415;SDS011;1721;51.238;9.562;2023-02-01T11:50:05;8.95;;;2.00;;
3415;SDS011;1721;51.238;9.562;2023-02-01T11:56:22;10.18;;;2.10;;
3415;SDS011;1721;51.238;9.562;2023-02-01T12:01:40;8.55;;;2.05;;
3415;SDS011;1721;51.238;9.562;2023-02-01T12:07:55;11.40;;;2.20;;
3415;SDS011;1721;51.238;9.562;2023-02-01T12:16:28;9.32;;;2.00;;
3415;SDS011;1721;51.238;9.562;2023-02-01T12:19:16;5.20;;;1.80;;
3415;SDS011;1721;51.238;9.562;2023-02-01T12:21:57;9.00;;;2.17;;
3415;SDS011;1721;51.238;9.562;2023-02-01T12:27:47;8.15;;;1.80;;
3415;SDS011;1721;51.238;9.562;2023-02-01T12:30:48;15.40;;;2.28;;
3415;SDS011;1721;51.238;9.562;2023-02-01T12:38:52;9.50;;;2.10;;
3415;SDS011;1721;51.238;9.562;2023-02-01T12:47:12;5.22;;;1.65;;
3415;SDS011;1721;51.238;9.562;2023-02-01T12:53:01;11.38;;;2.78;;
3415;SDS011;1721;51.238;9.562;2023-02-01T12:55:22;10.85;;;2.10;;
3415;SDS011;1721;51.238;9.562;2023-02-01T13:00:39;12.80;;;2.22;;
3415;SDS011;1721;51.238;9.562;2023-02-01T13:03:15;8.70;;;1.40;;
3415;SDS011;1721;51.238;9.562;2023-02-01T13:06:05;10.20;;;1.83;;
3415;SDS011;1721;51.238;9.562;2023-02-01T13:08:46;7.53;;;1.60;;
3415;SDS011;1721;51.238;9.562;2023-02-01T13:11:18;12.98;;;2.08;;
3415;SDS011;1721;51.238;9.562;2023-02-01T13:19:02;5.85;;;1.58;;
3415;SDS011;1721;51.238;9.562;2023-02-01T13:21:49;8.77;;;1.70;;
3415;SDS011;1721;51.238;9.562;2023-02-01T13:24:24;7.70;;;1.63;;
3415;SDS011;1721;51.238;9.562;2023-02-01T13:26:55;7.80;;;1.70;;
3415;SDS011;1721;51.238;9.562;2023-02-01T13:29:21;9.48;;;1.80;;
3415;SDS011;1721;51.238;9.562;2023-02-01T13:34:47;7.15;;;1.70;;
3415;SDS011;1721;51.238;9.562;2023-02-01T13:43:12;9.65;;;1.90;;
3415;SDS011;1721;51.238;9.562;2023-02-01T13:45:51;7.60;;;1.65;;
3415;SDS011;1721;51.238;9.562;2023-02-01T13:48:29;8.38;;;1.98;;
3415;SDS011;1721;51.238;9.562;2023-02-01T13:51:04;7.75;;;1.83;;
3415;SDS011;1721;51.238;9.562;2023-02-01T13:53:31;7.13;;;1.35;;
3415;SDS011;1721;51.238;9.562;2023-02-01T13:56:02;5.95;;;1.40;;
3415;SDS011;1721;51.238;9.562;2023-02-01T14:03:47;6.95;;;1.67;;
3415;SDS011;1721;51.238;9.562;2023-02-01T14:06:18;8.25;;;1.80;;
3415;SDS011;1721;51.238;9.562;2023-02-01T14:16:40;10.13;;;1.70;;
3415;SDS011;1721;51.238;9.562;2023-02-01T14:19:29;8.88;;;1.60;;
3415;SDS011;1721;51.238;9.562;2023-02-01T14:21:57;6.07;;;1.40;;
3415;SDS011;1721;51.238;9.562;2023-02-01T14:24:27;4.15;;;1.35;;
3415;SDS011;1721;51.238;9.562;2023-02-01T14:26:55;8.55;;;1.88;;
3415;SDS011;1721;51.238;9.562;2023-02-01T14:29:42;5.30;;;1.40;;
3415;SDS011;1721;51.238;9.562;2023-02-01T14:47:44;9.23;;;1.20;;
3415;SDS011;1721;51.238;9.562;2023-02-01T14:53:11;7.10;;;1.53;;
3415;SDS011;1721;51.238;9.562;2023-02-01T15:01:05;5.10;;;1.40;;
3415;SDS011;1721;51.238;9.562;2023-02-01T15:06:40;4.97;;;1.60;;
3415;SDS011;1721;51.238;9.562;2023-02-01T15:09:53;5.95;;;1.60;;
3415;SDS011;1721;51.238;9.562;2023-02-01T15:12:04;7.30;;;1.60;;
3415;SDS011;1721;51.238;9.562;2023-02-01T15:14:34;7.50;;;1.30;;
3415;SDS011;1721;51.238;9.562;2023-02-01T15:19:54;6.60;;;1.67;;
3415;SDS011;1721;51.238;9.562;2023-02-01T15:22:21;3.60;;;1.30;;
3415;SDS011;1721;51.238;9.562;2023-02-01T15:25:21;5.13;;;1.50;;
3415;SDS011;1721;51.238;9.562;2023-02-01T15:27:49;4.78;;;1.58;;
3415;SDS011;1721;51.238;9.562;2023-02-01T15:30:21;4.97;;;1.50;;
3415;SDS011;1721;51.238;9.562;2023-02-01T15:32:51;5.82;;;1.67;;
3415;SDS011;1721;51.238;9.562;2023-02-01T15:38:18;4.03;;;1.67;;
3415;SDS011;1721;51.238;9.562;2023-02-01T15:41:11;4.43;;;1.75;;
3415;SDS011;1721;51.238;9.562;2023-02-01T15:46:22;4.80;;;1.60;;
3415;SDS011;1721;51.238;9.562;2023-02-01T15:48:55;4.10;;;1.38;;
3415;SDS011;1721;51.238;9.562;2023-02-01T15:51:25;3.95;;;1.30;;
3415;SDS011;1721;51.238;9.562;2023-02-01T15:56:33;5.55;;;1.30;;
3415;SDS011;1721;51.238;9.562;2023-02-01T15:59:01;5.40;;;1.40;;
3415;SDS011;1721;51.238;9.562;2023-02-01T16:01:34;3.72;;;1.40;;
3415;SDS011;1721;51.238;9.562;2023-02-01T16:04:21;7.45;;;1.23;;
3415;SDS011;1721;51.238;9.562;2023-02-01T16:06:58;7.20;;;1.50;;
3415;SDS011;1721;51.238;9.562;2023-02-01T16:09:38;4.20;;;1.30;;
3415;SDS011;1721;51.238;9.562;2023-02-01T16:15:09;3.42;;;1.40;;
3415;SDS011;1721;51.238;9.562;2023-02-01T16:17:35;4.70;;;1.40;;
3415;SDS011;1721;51.238;9.562;2023-02-01T16:20:00;3.50;;;1.30;;
3415;SDS011;1721;51.238;9.562;2023-02-01T16:22:26;2.73;;;0.90;;
3415;SDS011;1721;51.238;9.562;2023-02-01T16:24:52;4.40;;;1.90;;
3415;SDS011;1721;51.238;9.562;2023-02-01T16:27:17;5.73;;;1.30;;
3415;SDS011;1721;51.238;9.562;2023-02-01T16:29:43;4.25;;;1.10;;
3415;SDS011;1721;51.238;9.562;2023-02-01T16:32:18;4.70;;;1.63;;
3415;SDS011;1721;51.238;9.562;2023-02-01T16:34:46;5.63;;;1.60;;
3415;SDS011;1721;51.238;9.562;2023-02-01T16:37:13;5.13;;;1.40;;
3415;SDS011;1721;51.238;9.562;2023-02-01T16:39:41;7.82;;;1.52;;
3415;SDS011;1721;51.238;9.562;2023-02-01T16:42:11;4.60;;;1.70;;
3415;SDS011;1721;51.238;9.562;2023-02-01T16:44:38;5.00;;;1.55;;
3415;SDS011;1721;51.238;9.562;2023-02-01T16:47:09;7.30;;;1.80;;
3415;SDS011;1721;51.238;9.562;2023-02-01T16:49:37;6.80;;;1.50;;
3415;SDS011;1721;51.238;9.562;2023-02-01T16:52:08;5.90;;;1.65;;
3415;SDS011;1721;51.238;9.562;2023-02-01T16:54:39;10.65;;;1.80;;
3415;SDS011;1721;51.238;9.562;2023-02-01T16:57:05;5.47;;;1.40;;
3415;SDS011;1721;51.238;9.562;2023-02-01T16:59:32;5.40;;;1.40;;
3415;SDS011;1721;51.238;9.562;2023-02-01T17:01:58;5.67;;;1.70;;
3415;SDS011;1721;51.238;9.562;2023-02-01T17:04:23;10.67;;;2.40;;
3415;SDS011;1721;51.238;9.562;2023-02-01T17:06:49;8.90;;;1.80;;
3415;SDS011;1721;51.238;9.562;2023-02-01T17:09:14;5.85;;;1.70;;
3415;SDS011;1721;51.238;9.562;2023-02-01T17:11:40;6.65;;;1.98;;
3415;SDS011;1721;51.238;9.562;2023-02-01T17:14:14;5.97;;;2.00;;
3415;SDS011;1721;51.238;9.562;2023-02-01T17:16:41;8.50;;;1.70;;
3415;SDS011;1721;51.238;9.562;2023-02-01T17:19:12;8.18;;;1.80;;
3415;SDS011;1721;51.238;9.562;2023-02-01T17:21:46;5.95;;;1.80;;
3415;SDS011;1721;51.238;9.562;2023-02-01T17:24:14;6.07;;;1.70;;
3415;SDS011;1721;51.238;9.562;2023-02-01T17:26:41;10.63;;;2.03;;
3415;SDS011;1721;51.238;9.562;2023-02-01T17:29:08;7.45;;;1.90;;
3415;SDS011;1721;51.238;9.562;2023-02-01T17:31:35;5.78;;;1.95;;
3415;SDS011;1721;51.238;9.562;2023-02-01T17:34:08;5.70;;;1.58;;
3415;SDS011;1721;51.238;9.562;2023-02-01T17:36:34;5.93;;;1.50;;
3415;SDS011;1721;51.238;9.562;2023-02-01T17:39:00;10.17;;;2.00;;
3415;SDS011;1721;51.238;9.562;2023-02-01T17:41:26;4.57;;;1.58;;
3415;SDS011;1721;51.238;9.562;2023-02-01T17:43:52;6.00;;;1.40;;
3415;SDS011;1721;51.238;9.562;2023-02-01T17:46:18;4.43;;;1.40;;
3415;SDS011;1721;51.238;9.562;2023-02-01T17:48:45;6.72;;;1.48;;
3415;SDS011;1721;51.238;9.562;2023-02-01T17:51:15;8.90;;;2.10;;
3415;SDS011;1721;51.238;9.562;2023-02-01T17:53:43;9.63;;;2.00;;
3415;SDS011;1721;51.238;9.562;2023-02-01T17:56:17;10.57;;;2.07;;
3415;SDS011;1721;51.238;9.562;2023-02-01T17:58:44;5.80;;;1.60;;
3415;SDS011;1721;51.238;9.562;2023-02-01T18:01:10;5.57;;;2.00;;
3415;SDS011;1721;51.238;9.562;2023-02-01T18:03:43;9.00;;;2.17;;
3415;SDS011;1721;51.238;9.562;2023-02-01T18:06:13;8.57;;;2.00;;
3415;SDS011;1721;51.238;9.562;2023-02-01T18:08:40;9.55;;;1.70;;
3415;SDS011;1721;51.238;9.562;2023-02-01T18:11:08;6.00;;;1.60;;
3415;SDS011;1721;51.238;9.562;2023-02-01T18:13:37;4.90;;;1.80;;
3415;SDS011;1721;51.238;9.562;2023-02-01T18:16:03;7.10;;;1.80;;
3415;SDS011;1721;51.238;9.562;2023-02-01T18:18:29;5.65;;;1.77;;
3415;SDS011;1721;51.238;9.562;2023-02-01T18:20:57;6.13;;;1.52;;
3415;SDS011;1721;51.238;9.562;2023-02-01T18:23:23;8.98;;;2.00;;